Time;durP1;ratioP1;P1;durP2;ratioP2;P2;SDS_P1;SDS_P2;PMS_P1;PMS_P2;Temp;Humidity;BMP_temperature;BMP_pressure;BME280_temperature;BME280_humidity;BME280_pressure;Samples;Min_cycle;Max_cycle;Signal;HPM_P1;HPM_P2
2022/08/24 00:06:12;;;;;;;;;5.75;5.00;;;;;26.10;49.44;100892.94;4719048;29;46032;-86
2022/08/24 00:08:38;;;;;;;;;5.00;4.00;;;;;25.88;48.70;100857.34;4684300;30;47917;-84
2022/08/24 00:11:05;;;;;;;;;4.75;4.00;;;;;26.20;48.84;100913.00;4698896;30;46183;-85
2022/08/24 00:13:32;;;;;;;;;4.00;3.25;;;;;26.20;49.10;100912.16;4684390;30;45986;-85
2022/08/24 00:15:57;;;;;;;;;5.00;5.00;;;;;26.09;48.91;100892.09;4698246;30;45903;-86
2022/08/24 00:18:23;;;;;;;;;5.50;4.00;;;;;26.11;49.29;100895.41;4697916;30;45609;-87
2022/08/24 00:20:49;;;;;;;;;5.00;5.00;;;;;26.21;49.49;100914.66;4683531;30;47095;-82
2022/08/24 00:23:17;;;;;;;;;4.00;4.00;;;;;26.22;49.11;100908.28;4705019;30;45910;-84
2022/08/24 00:29:05;;;;;;;;;4.25;4.25;;;;;26.14;49.45;100895.00;4822995;29;45568;-85
2022/08/24 00:31:40;;;;;;;;;5.25;3.75;;;;;25.81;49.45;100841.22;4832222;29;45989;-84
2022/08/24 00:34:16;;;;;;;;;4.00;4.00;;;;;25.75;49.92;100833.97;4859994;28;45620;-84
2022/08/24 00:36:53;;;;;;;;;;;;;;;;;;;;;
2022/08/24 00:39:24;;;;;;;;;5.75;5.00;;;;;25.67;49.75;100831.47;4907667;29;74858;-85
2022/08/24 00:41:53;;;;;;;;;3.00;3.00;;;;;25.89;50.23;100859.84;4988285;28;47429;-83
2022/08/24 00:44:19;;;;;;;;;4.00;3.00;;;;;26.19;50.03;100911.34;4988992;28;45779;-86
2022/08/24 00:46:58;;;;;;;;;6.50;5.00;;;;;26.09;49.72;100894.78;5041556;28;45516;-84
2022/08/24 00:49:34;;;;;;;;;4.00;3.50;;;;;26.19;49.98;100908.66;5059662;28;45459;-85
2022/08/24 00:52:24;;;;;;;;;5.00;4.50;;;;;26.18;50.01;100900.81;5040471;28;47454;-84
2022/08/24 00:55:19;;;;;;;;;4.00;3.25;;;;;26.09;49.82;100891.28;5057513;28;45634;-83
2022/08/24 00:57:48;;;;;;;;;5.00;4.00;;;;;26.14;50.23;100903.06;5054565;28;46084;-84
2022/08/24 01:00:23;;;;;;;;;4.25;4.25;;;;;26.13;50.17;100905.94;5056230;28;45555;-84
2022/08/24 01:02:53;;;;;;;;;5.00;5.00;;;;;26.03;50.30;100890.22;5038058;28;46831;-85
2022/08/24 01:05:19;;;;;;;;;3.00;3.00;;;;;26.04;50.29;100897.25;5037752;28;46137;-84
2022/08/24 01:07:49;;;;;;;;;5.25;4.00;;;;;25.87;50.51;100869.09;5038287;28;45741;-85
2022/08/24 01:10:19;;;;;;;;;5.75;4.00;;;;;25.98;50.27;100889.16;5037595;28;47780;-84
2022/08/24 01:12:47;;;;;;;;;4.25;4.25;;;;;25.82;50.61;100867.03;5038611;28;48239;-85
2022/08/24 01:15:15;;;;;;;;;4.00;3.75;;;;;25.91;50.22;100881.91;5056546;28;45551;-85
2022/08/24 01:20:25;;;;;;;;;3.00;3.00;;;;;26.01;50.80;100907.59;5056884;28;46087;-83
2022/08/24 01:23:10;;;;;;;;;4.00;3.00;;;;;25.99;50.58;100902.41;5057657;28;46056;-83
2022/08/24 01:25:37;;;;;;;;;3.00;3.00;;;;;25.94;50.78;100891.44;5060568;28;45693;-86
2022/08/24 01:28:09;;;;;;;;;3.00;3.00;;;;;25.79;50.68;100870.13;5061013;28;45754;-85
2022/08/24 01:30:35;;;;;;;;;4.00;4.00;;;;;25.95;50.63;100903.03;5057765;28;46367;-85
2022/08/24 01:33:09;;;;;;;;;3.00;3.00;;;;;25.89;51.52;100901.97;5057049;28;45584;-84
2022/08/24 01:35:37;;;;;;;;;3.00;3.00;;;;;25.81;51.11;100891.38;5058557;28;45656;-84
2022/08/24 01:38:07;;;;;;;;;4.00;3.00;;;;;25.88;51.20;100900.31;5060169;28;45817;-84
2022/08/24 01:40:41;;;;;;;;;3.00;3.00;;;;;25.73;51.35;100887.03;5060757;28;45751;-85
2022/08/24 01:43:11;;;;;;;;;2.00;2.00;;;;;25.82;51.31;100901.09;5061788;28;45642;-84
2022/08/24 01:45:37;;;;;;;;;2.50;2.50;;;;;25.63;51.86;100885.75;5061774;28;45647;-85
2022/08/24 01:48:03;;;;;;;;;2.75;2.75;;;;;25.72;51.17;100900.66;5058694;28;45757;-85
2022/08/24 01:57:26;;;;;;;;;4.00;4.00;;;;;25.56;51.57;100888.41;4899713;29;45984;-83
2022/08/24 01:59:52;;;;;;;;;3.75;3.00;;;;;25.52;51.54;100883.63;4897594;29;45658;-85
2022/08/24 02:02:28;;;;;;;;;3.00;3.00;;;;;25.68;51.68;100902.94;4897252;29;45685;-85
2022/08/24 02:04:54;;;;;;;;;4.00;3.00;;;;;25.56;51.67;100880.38;4896219;29;47344;-85
2022/08/24 02:07:19;;;;;;;;;3.50;3.00;;;;;25.65;51.86;100899.78;4896327;29;45754;-84
2022/08/24 02:09:45;;;;;;;;;2.50;2.00;;;;;25.56;51.99;100891.09;4896573;29;45646;-85
2022/08/24 02:15:38;;;;;;;;;2.00;1.75;;;;;25.46;51.93;100878.03;4857870;28;46081;-83
2022/08/24 02:18:10;;;;;;;;;3.00;3.00;;;;;25.37;51.85;100873.03;4858477;29;45692;-84
2022/08/24 02:20:36;;;;;;;;;3.00;3.00;;;;;25.54;52.06;100900.34;4858447;29;45735;-84
2022/08/24 02:23:06;;;;;;;;;4.00;4.00;;;;;25.33;52.25;100874.44;4858930;29;46395;-83
2022/08/24 02:25:35;;;;;;;;;3.00;3.00;;;;;25.31;52.12;100873.81;4859705;29;47688;-84
2022/08/24 02:32:00;;;;;;;;;4.00;3.75;;;;;25.09;52.32;100840.91;4877433;28;45862;-86
2022/08/24 02:34:28;;;;;;;;;2.50;2.50;;;;;25.40;53.05;100904.81;4881447;28;47538;-85
2022/08/24 02:36:53;;;;;;;;;4.00;4.00;;;;;25.42;52.43;100906.28;4916660;28;45772;-85
2022/08/24 02:39:20;;;;;;;;;3.50;3.50;;;;;25.41;52.67;100903.78;4930884;28;45846;-84
2022/08/24 02:41:45;;;;;;;;;3.25;3.00;;;;;25.19;52.88;100875.41;4915661;28;45655;-83
2022/08/24 02:44:10;;;;;;;;;3.25;3.00;;;;;25.39;52.41;100905.84;4915682;28;45811;-84
2022/08/24 02:46:36;;;;;;;;;3.75;3.00;;;;;25.21;52.74;100876.03;4914304;28;47272;-83
2022/08/24 02:49:02;;;;;;;;;3.50;3.50;;;;;25.35;53.32;100902.72;4915197;28;45996;-85
2022/08/24 02:51:30;;;;;;;;;3.00;3.00;;;;;25.26;53.06;100882.47;4923632;28;45710;-85
2022/08/24 02:53:57;;;;;;;;;4.50;3.00;;;;;25.33;53.40;100903.94;4992445;28;45756;-85
2022/08/24 02:57:50;;;;;;;;;;;;;;;;;;;;;
2022/08/24 03:00:18;;;;;;;;;4.50;3.50;;;;;25.28;52.89;100911.75;4861041;29;73142;-84
2022/08/24 03:02:44;;;;;;;;;3.75;3.50;;;;;24.96;53.00;100854.22;4861550;28;45750;-83
2022/08/24 03:05:14;;;;;;;;;4.00;3.00;;;;;25.23;53.20;100901.63;4860414;29;45758;-85
2022/08/24 03:07:39;;;;;;;;;3.50;3.50;;;;;25.02;53.55;100862.31;4872696;29;47194;-85
2022/08/24 03:13:29;;;;;;;;;4.75;4.25;;;;;24.96;53.63;100879.16;4895686;29;45803;-85
2022/08/24 03:15:55;;;;;;;;;3.00;3.00;;;;;24.92;53.32;100861.81;4906161;29;46709;-84
2022/08/24 03:18:21;;;;;;;;;4.50;4.50;;;;;24.87;53.61;100856.19;4900509;29;47078;-85
2022/08/24 03:20:48;;;;;;;;;2.00;2.00;;;;;25.04;53.74;100892.44;4895166;29;45737;-82
2022/08/24 03:23:16;;;;;;;;;4.75;4.00;;;;;24.85;53.56;100871.63;4876213;29;45653;-84
2022/08/24 03:29:04;;;;;;;;;3.00;3.00;;;;;24.90;53.99;100884.47;4897850;29;46006;-84
2022/08/24 03:31:29;;;;;;;;;4.75;4.75;;;;;24.93;53.74;100892.97;4898335;29;45903;-84
2022/08/24 03:33:55;;;;;;;;;4.50;4.25;;;;;24.86;54.07;100886.69;4899456;29;45816;-86
2022/08/24 03:36:20;;;;;;;;;4.00;4.00;;;;;24.91;54.24;100889.66;4955294;28;48519;-85
2022/08/24 03:38:46;;;;;;;;;6.00;5.00;;;;;24.86;54.28;100884.03;5042676;28;47450;-82
2022/08/24 03:44:33;;;;;;;;;6.75;5.00;;;;;24.72;54.36;100865.38;5060639;28;45531;-84
2022/08/24 03:46:58;;;;;;;;;2.00;1.00;;;;;24.87;54.58;100890.22;5038901;28;47357;-83
2022/08/24 03:49:24;;;;;;;;;4.00;4.00;;;;;24.68;54.59;100870.25;5056710;28;45675;-84
2022/08/24 03:51:49;;;;;;;;;5.00;5.00;;;;;24.80;54.58;100882.13;5059118;28;45585;-84
2022/08/24 03:54:16;;;;;;;;;4.25;4.25;;;;;24.66;54.69;100862.44;5057286;28;45993;-84
2022/08/24 04:00:07;;;;;;;;;5.25;4.25;;;;;24.71;54.66;100869.06;5054934;28;46032;-84
2022/08/24 04:02:33;;;;;;;;;7.00;6.75;;;;;24.63;54.73;100862.81;5037223;28;45914;-83
2022/08/24 04:04:58;;;;;;;;;5.00;5.00;;;;;24.66;54.84;100864.28;5055401;28;45550;-83
2022/08/24 04:07:24;;;;;;;;;6.50;6.00;;;;;24.73;54.55;100889.28;5055293;28;46902;-83
2022/08/24 04:09:49;;;;;;;;;7.00;7.00;;;;;24.68;55.04;100879.13;5055801;28;46080;-83
2022/08/24 04:15:41;;;;;;;;;7.00;6.25;;;;;24.68;55.32;100887.19;5057053;28;45585;-84
2022/08/24 04:18:07;;;;;;;;;5.25;5.25;;;;;24.68;55.26;100875.63;5038388;28;46506;-85
2022/08/24 04:20:55;;;;;;;;;6.00;5.50;;;;;24.69;54.89;100882.66;5055780;28;45967;-85
2022/08/24 04:23:21;;;;;;;;;8.00;7.25;;;;;24.56;55.35;100869.97;5055655;28;45739;-83
2022/08/24 04:25:47;;;;;;;;;5.50;5.50;;;;;24.34;54.82;100835.38;5037200;28;45863;-85
2022/08/24 04:28:20;;;;;;;;;6.50;6.25;;;;;24.65;55.60;100887.56;5055706;28;45604;-84
2022/08/24 04:30:53;;;;;;;;;5.75;5.75;;;;;24.53;55.81;100869.53;5053686;28;47711;-84
2022/08/24 04:33:18;;;;;;;;;7.00;6.00;;;;;24.51;55.74;100866.19;5037235;28;45732;-84
2022/08/24 04:35:47;;;;;;;;;7.25;6.75;;;;;24.51;56.14;100868.88;5054979;28;45621;-85
2022/08/24 04:38:13;;;;;;;;;7.50;4.50;;;;;24.41;55.74;100863.03;5036947;28;46660;-84
2022/08/24 04:46:47;;;;;;;;;6.50;6.25;;;;;24.39;55.37;100854.38;5062772;28;45736;-84
2022/08/24 04:49:12;;;;;;;;;8.00;6.75;;;;;24.51;55.82;100879.59;5059990;28;45714;-84
2022/08/24 04:51:37;;;;;;;;;6.50;6.00;;;;;24.50;55.62;100886.00;5038394;28;48262;-83
2022/08/24 04:54:04;;;;;;;;;4.25;4.25;;;;;24.39;56.05;100862.41;5038660;28;45700;-82
2022/08/24 04:56:29;;;;;;;;;6.50;5.75;;;;;24.46;55.62;100874.00;5038239;28;45824;-84
2022/08/24 04:58:55;;;;;;;;;6.00;6.00;;;;;24.47;55.83;100876.50;5036907;28;47533;-84
2022/08/24 05:01:24;;;;;;;;;7.25;6.00;;;;;24.10;55.87;100817.81;5036266;28;46206;-85
2022/08/24 05:03:53;;;;;;;;;4.25;4.25;;;;;24.11;55.97;100825.66;5036454;28;45657;-82
2022/08/24 05:06:21;;;;;;;;;7.00;5.00;;;;;24.38;55.80;100869.63;5037001;28;45949;-83
2022/08/24 05:08:46;;;;;;;;;5.75;5.00;;;;;24.45;56.00;100891.13;5036467;28;46536;-83
2022/08/24 05:11:13;;;;;;;;;6.75;5.75;;;;;24.44;55.90;100884.91;5055587;28;45628;-84
2022/08/24 05:13:39;;;;;;;;;8.00;6.50;;;;;24.20;55.96;100854.00;5037427;28;45825;-84
2022/08/24 05:16:06;;;;;;;;;6.75;6.25;;;;;24.05;55.80;100826.44;5055455;28;45816;-83
2022/08/24 05:18:32;;;;;;;;;5.00;5.00;;;;;24.20;56.04;100854.00;5054371;28;45624;-83
2022/08/24 05:20:58;;;;;;;;;7.50;6.50;;;;;24.20;56.19;100850.47;5036773;28;46280;-83
2022/08/24 05:23:24;;;;;;;;;7.00;6.25;;;;;24.44;56.08;100902.84;5057900;28;45632;-84
2022/08/24 05:25:49;;;;;;;;;6.75;6.00;;;;;24.41;56.14;100884.47;5046187;28;46005;-85
2022/08/24 05:31:37;;;;;;;;;8.00;7.00;;;;;24.33;55.99;100879.25;5057041;28;45528;-83
2022/08/24 05:34:03;;;;;;;;;7.50;7.00;;;;;24.41;56.04;100896.00;5036891;28;45646;-83
2022/08/24 05:36:36;;;;;;;;;7.50;7.00;;;;;24.38;56.49;100891.03;5037359;28;45615;-85
2022/08/24 05:39:05;;;;;;;;;6.75;6.50;;;;;24.37;56.40;100889.38;5057754;28;45899;-84
2022/08/24 05:41:30;;;;;;;;;6.00;5.00;;;;;24.42;56.06;100894.16;5057145;28;46427;-84
2022/08/24 05:43:56;;;;;;;;;7.50;6.50;;;;;24.42;55.79;100891.47;5036035;28;45572;-84
2022/08/24 05:46:21;;;;;;;;;7.25;6.75;;;;;24.38;56.23;100885.69;5054455;28;45789;-85
2022/08/24 05:48:47;;;;;;;;;8.00;7.00;;;;;24.38;56.46;100882.19;5052515;28;45543;-84
2022/08/24 05:51:12;;;;;;;;;8.25;7.00;;;;;24.24;56.39;100863.28;5035728;28;47284;-85
2022/08/24 05:53:39;;;;;;;;;7.00;6.00;;;;;24.39;56.35;100890.03;5054220;28;45748;-85
2022/08/24 05:56:06;;;;;;;;;5.50;5.50;;;;;24.37;55.90;100884.03;5054620;28;46049;-84
2022/08/24 06:01:53;;;;;;;;;7.50;6.50;;;;;24.44;56.20;100887.59;5053452;28;45760;-84
2022/08/24 06:04:19;;;;;;;;;8.25;7.50;;;;;24.47;56.05;100897.09;5052378;28;45826;-84
2022/08/24 06:06:45;;;;;;;;;5.00;5.00;;;;;24.48;55.92;100894.22;5054640;28;45693;-84
2022/08/24 06:09:11;;;;;;;;;19.75;16.50;;;;;24.42;56.06;100886.13;5055491;28;45659;-84
2022/08/24 06:11:39;;;;;;;;;9.25;9.25;;;;;24.23;55.88;100853.63;5037024;28;47987;-85
2022/08/24 06:14:08;;;;;;;;;6.75;6.75;;;;;24.54;56.01;100901.50;5036662;28;45659;-84
2022/08/24 06:16:35;;;;;;;;;7.00;6.25;;;;;24.46;55.84;100898.94;5055684;28;46015;-85
2022/08/24 06:19:01;;;;;;;;;6.00;5.75;;;;;24.58;55.68;100909.97;5054855;28;45977;-83
2022/08/24 06:21:27;;;;;;;;;7.75;7.00;;;;;24.51;55.70;100885.78;5055361;28;45707;-84
2022/08/24 06:23:52;;;;;;;;;6.00;5.50;;;;;24.61;55.48;100902.41;5037806;28;45924;-84
2022/08/24 06:32:28;;;;;;;;;6.00;5.50;;;;;24.67;55.25;100912.31;5055225;28;45729;-84
2022/08/24 06:34:57;;;;;;;;;7.75;7.00;;;;;24.69;55.50;100909.44;5054099;28;45556;-84
2022/08/24 06:37:25;;;;;;;;;6.25;6.00;;;;;24.64;55.13;100895.81;5053595;28;45588;-84
2022/08/24 06:39:52;;;;;;;;;7.75;7.00;;;;;24.62;55.12;100895.97;5034362;28;48508;-83
2022/08/24 06:42:17;;;;;;;;;6.00;6.00;;;;;24.73;55.06;100913.41;5052390;28;46144;-76
2022/08/24 06:44:43;;;;;;;;;6.25;5.50;;;;;24.72;55.17;100897.53;5052627;28;45715;-77
2022/08/24 06:47:10;;;;;;;;;5.00;5.00;;;;;24.82;55.13;100908.75;5052335;28;45895;-76
2022/08/24 06:49:36;;;;;;;;;7.50;7.00;;;;;24.82;54.85;100906.88;5051615;28;46450;-77
2022/08/24 06:52:05;;;;;;;;;6.25;6.00;;;;;24.85;55.00;100903.81;5052178;28;47078;-77
2022/08/24 06:54:32;;;;;;;;;6.50;6.00;;;;;24.88;54.62;100908.81;5052144;28;45862;-78
2022/08/24 06:56:57;;;;;;;;;5.00;5.00;;;;;24.90;54.82;100905.94;5034181;28;45877;-77
2022/08/24 06:59:27;;;;;;;;;6.00;5.00;;;;;24.92;54.57;100904.72;5051800;28;47155;-76
2022/08/24 07:01:54;;;;;;;;;6.25;6.00;;;;;24.97;54.83;100906.81;5054306;28;46385;-77
2022/08/24 07:04:20;;;;;;;;;4.50;4.50;;;;;25.00;54.57;100906.41;5054567;28;45603;-75
2022/08/24 07:06:46;;;;;;;;;6.00;6.00;;;;;25.01;54.56;100902.72;5055233;28;45740;-75
2022/08/24 07:09:13;;;;;;;;;5.25;5.00;;;;;25.03;54.25;100901.50;5054732;28;47380;-77
2022/08/24 07:11:42;;;;;;;;;6.00;6.00;;;;;25.07;54.68;100908.13;5036794;28;48322;-80
2022/08/24 07:17:44;;;;;;;;;5.75;5.00;;;;;25.07;53.96;100896.56;5053579;28;45828;-78
2022/08/24 07:20:11;;;;;;;;;7.50;5.00;;;;;25.16;54.01;100911.47;5054553;28;47361;-77
2022/08/24 07:22:36;;;;;;;;;5.00;4.25;;;;;25.14;53.69;100902.81;5055720;28;47162;-80
2022/08/24 07:25:02;;;;;;;;;4.25;4.25;;;;;25.21;53.58;100910.91;5055236;28;45740;-78
2022/08/24 07:27:28;;;;;;;;;4.75;4.00;;;;;25.22;53.36;100908.00;5055844;28;45738;-80
2022/08/24 07:29:53;;;;;;;;;5.25;4.25;;;;;25.27;53.33;100916.28;5055297;28;46594;-77
2022/08/24 07:32:19;;;;;;;;;4.00;4.00;;;;;25.30;53.09;100915.09;5055873;28;46296;-79
2022/08/24 07:34:45;;;;;;;;;4.00;3.25;;;;;25.25;53.19;100904.94;5057064;28;46071;-77
2022/08/24 07:37:10;;;;;;;;;4.00;4.00;;;;;25.33;52.98;100918.19;5057467;28;45748;-78
2022/08/24 07:39:35;;;;;;;;;4.00;3.00;;;;;25.27;52.92;100899.38;5056128;28;46162;-76
2022/08/24 07:42:01;;;;;;;;;4.00;3.00;;;;;25.35;52.79;100913.47;5055640;28;46417;-76
2022/08/24 07:47:49;;;;;;;;;5.00;4.00;;;;;25.48;52.54;100926.09;5055207;28;45642;-76
2022/08/24 07:50:16;;;;;;;;;3.00;3.00;;;;;25.53;52.42;100930.91;5054637;28;45572;-77
2022/08/24 07:52:42;;;;;;;;;5.00;4.00;;;;;25.55;52.53;100931.50;5055175;28;45836;-77
2022/08/24 07:55:10;;;;;;;;;4.00;4.00;;;;;25.56;52.32;100926.00;5054838;28;45677;-77
2022/08/24 07:57:37;;;;;;;;;3.75;3.75;;;;;25.60;52.31;100923.72;5054484;28;45928;-76
2022/08/24 08:00:05;;;;;;;;;3.75;3.25;;;;;25.66;52.35;100933.66;5054499;28;46921;-76
2022/08/24 08:02:32;;;;;;;;;4.75;4.75;;;;;25.68;52.32;100931.63;5054549;28;47099;-78
2022/08/24 08:04:58;;;;;;;;;3.50;3.25;;;;;25.71;51.90;100933.91;5054526;28;45504;-75
2022/08/24 08:07:23;;;;;;;;;5.00;4.00;;;;;25.77;52.06;100938.47;5054750;28;45545;-77
2022/08/24 08:09:48;;;;;;;;;4.50;4.00;;;;;25.81;51.98;100942.41;5054239;28;46385;-78
2022/08/24 08:12:15;;;;;;;;;4.00;4.00;;;;;25.77;51.59;100931.25;5053820;28;46576;-80
2022/08/24 08:18:02;;;;;;;;;5.00;5.00;;;;;25.94;51.42;100944.31;5053411;28;45709;-78
2022/08/24 08:20:27;;;;;;;;;3.25;3.25;;;;;25.98;51.43;100948.25;5053973;28;46225;-78
2022/08/24 08:25:37;;;;;;;;;2.25;2.00;;;;;26.07;51.19;100945.22;5054807;28;45756;-80
2022/08/24 08:28:04;;;;;;;;;4.25;3.50;;;;;26.11;50.75;100945.63;5054373;28;45592;-77
2022/08/24 08:30:29;;;;;;;;;4.00;3.00;;;;;26.17;51.07;100953.72;5053977;28;46453;-77
2022/08/24 08:32:55;;;;;;;;;3.25;3.25;;;;;26.23;50.50;100944.88;5054110;28;46778;-78
2022/08/24 08:35:22;;;;;;;;;4.00;4.00;;;;;26.27;50.94;100947.97;5054259;28;45923;-79
2022/08/24 08:37:48;;;;;;;;;4.00;3.00;;;;;26.32;50.33;100940.13;5054067;28;45586;-79
2022/08/24 08:40:59;;;;;;;;;3.00;3.00;;;;;26.37;49.92;100942.19;5053881;28;46322;-79
2022/08/24 08:43:36;;;;;;;;;3.75;3.00;;;;;26.41;49.97;100946.13;4991655;28;46374;-78
2022/08/24 08:46:20;;;;;;;;;4.50;4.50;;;;;26.44;49.86;100943.88;4991753;28;46099;-78
2022/08/24 08:49:04;;;;;;;;;4.75;4.00;;;;;26.48;49.70;100947.81;4991891;28;45683;-78
2022/08/24 08:51:40;;;;;;;;;4.75;3.75;;;;;26.51;49.35;100941.19;4991947;28;46376;-77
2022/08/24 08:54:46;;;;;;;;;2.00;2.00;;;;;26.60;49.53;100950.72;4991958;28;45977;-79
2022/08/24 08:57:38;;;;;;;;;1.00;1.00;;;;;26.64;48.63;100947.41;4934124;28;46108;-78
2022/08/24 09:00:10;;;;;;;;;1.00;1.00;;;;;26.70;48.67;100935.84;4917295;28;46035;-79
2022/08/24 09:02:56;;;;;;;;;1.75;1.75;;;;;26.74;48.19;100942.47;4933536;28;46667;-78
2022/08/24 09:05:59;;;;;;;;;2.00;2.00;;;;;26.79;47.99;100941.00;4927194;28;47217;-77
2022/08/24 09:08:25;;;;;;;;;3.25;2.00;;;;;26.83;47.69;100943.06;4932623;28;45940;-77
2022/08/24 09:10:56;;;;;;;;;1.75;1.75;;;;;26.87;47.82;100940.81;4932936;28;45853;-77
2022/08/24 09:13:44;;;;;;;;;4.25;3.00;;;;;26.91;47.79;100942.91;4932560;28;45775;-76
2022/08/24 09:16:23;;;;;;;;;2.00;2.00;;;;;26.84;47.76;100919.69;4932725;28;45977;-77
2022/08/24 09:19:27;;;;;;;;;2.50;2.00;;;;;26.73;46.95;100900.47;4916227;28;45682;-76
2022/08/24 09:22:06;;;;;;;;;2.00;1.75;;;;;27.00;47.05;100941.66;4971866;28;45693;-75
2022/08/24 09:24:41;;;;;;;;;2.00;1.75;;;;;27.03;47.13;100945.78;4971093;28;45695;-78
2022/08/24 09:27:18;;;;;;;;;3.00;2.50;;;;;27.06;46.40;100940.81;4971672;28;46660;-77
2022/08/24 09:30:13;;;;;;;;;2.00;2.00;;;;;27.09;46.51;100943.09;4971612;28;45711;-78
2022/08/24 09:32:57;;;;;;;;;2.00;2.00;;;;;27.15;46.03;100950.31;4959271;28;45690;-76
2022/08/24 09:35:33;;;;;;;;;1.00;1.00;;;;;27.23;46.30;100948.44;4972083;28;45807;-77
2022/08/24 09:38:17;;;;;;;;;1.75;1.75;;;;;27.29;45.79;100953.00;5021915;28;46273;-76
2022/08/24 09:41:10;;;;;;;;;1.00;1.00;;;;;27.32;45.64;100953.41;5031952;28;45850;-76
2022/08/24 09:47:11;;;;;;;;;1.75;1.75;;;;;27.44;45.34;100949.03;5033577;28;45742;-76
2022/08/24 09:49:55;;;;;;;;;1.00;1.00;;;;;27.49;45.03;100948.41;5032807;28;45846;-78
2022/08/24 09:52:45;;;;;;;;;2.00;2.00;;;;;27.57;45.13;100950.91;5033256;28;45783;-74
2022/08/24 09:55:13;;;;;;;;;1.25;1.25;;;;;27.63;44.63;100947.38;5033147;28;45585;-76
2022/08/24 09:58:02;;;;;;;;;1.50;1.50;;;;;27.69;44.41;100943.00;5033031;28;45564;-77
2022/08/24 10:04:06;;;;;;;;;2.00;1.50;;;;;27.80;44.48;100936.94;5033085;28;45587;-78
2022/08/24 10:06:53;;;;;;;;;2.00;1.50;;;;;27.87;44.48;100929.66;5033277;28;45747;-75
2022/08/24 10:09:35;;;;;;;;;2.00;1.25;;;;;27.92;44.05;100932.53;5032258;28;46444;-77
2022/08/24 10:12:19;;;;;;;;;0.00;0.00;;;;;27.97;43.69;100935.41;5032447;28;47424;-78
2022/08/24 10:15:00;;;;;;;;;1.00;0.75;;;;;27.92;43.91;100916.34;5032698;28;45662;-78
2022/08/24 10:18:02;;;;;;;;;1.50;1.00;;;;;28.05;44.04;100926.25;5038115;28;45982;-74
2022/08/24 10:20:46;;;;;;;;;0.50;0.25;;;;;28.09;42.99;100914.00;5052818;28;45887;-77
2022/08/24 10:23:49;;;;;;;;;1.25;1.00;;;;;28.11;43.11;100912.75;5052956;28;45875;-76
2022/08/24 10:26:27;;;;;;;;;1.25;1.25;;;;;28.16;43.33;100912.13;5052831;28;45645;-78
2022/08/24 10:32:36;;;;;;;;;1.00;1.00;;;;;28.27;42.51;100912.25;5052417;28;45650;-78
2022/08/24 10:35:08;;;;;;;;;1.00;1.00;;;;;28.34;42.23;100907.63;5036188;28;47238;-77
2022/08/24 10:39:39;;;;;;;;;1.25;0.75;;;;;28.29;42.88;100885.91;5056154;28;45735;-78
2022/08/24 10:41:20;;;;;;;;;0.75;0.75;;;;;28.40;42.03;100895.16;5055817;28;45769;-77
2022/08/24 10:44:16;;;;;;;;;1.00;1.00;;;;;28.50;41.98;100902.78;5055952;28;45717;-80
2022/08/24 10:46:58;;;;;;;;;1.00;1.00;;;;;28.56;41.90;100909.97;5056060;28;45843;-76
2022/08/24 10:50:07;;;;;;;;;2.00;1.00;;;;;28.60;41.58;100900.41;5055592;28;45826;-79
2022/08/24 10:52:48;;;;;;;;;1.00;1.00;;;;;28.64;41.90;100907.84;5055919;28;45711;-80
2022/08/24 10:55:25;;;;;;;;;0.00;0.00;;;;;28.70;41.33;100911.53;5056167;28;45633;-78
2022/08/24 10:58:24;;;;;;;;;3.00;1.00;;;;;28.74;41.65;100907.38;5055798;28;46481;-76
2022/08/24 11:00:51;;;;;;;;;1.00;1.00;;;;;28.81;40.78;100907.31;5055870;28;45640;-77
2022/08/24 11:03:25;;;;;;;;;1.00;1.00;;;;;28.82;41.10;100893.63;5055866;28;45896;-78
2022/08/24 11:05:54;;;;;;;;;0.00;0.00;;;;;28.90;40.94;100901.41;5055735;28;46315;-78
2022/08/24 11:08:32;;;;;;;;;0.00;0.00;;;;;28.93;40.58;100897.47;5054986;28;45816;-78
2022/08/24 11:11:10;;;;;;;;;1.00;1.00;;;;;28.90;40.76;100892.50;5055689;28;45575;-78
2022/08/24 11:13:37;;;;;;;;;1.25;1.25;;;;;28.98;40.96;100900.31;5055265;28;45861;-78
2022/08/24 11:16:04;;;;;;;;;3.25;3.25;;;;;28.95;40.37;100879.16;5055196;28;45707;-75
2022/08/24 11:18:52;;;;;;;;;1.00;1.00;;;;;29.02;41.01;100877.22;5054657;28;45991;-77
2022/08/24 11:21:38;;;;;;;;;1.75;1.75;;;;;29.07;40.26;100875.50;5055544;28;45574;-80
2022/08/24 11:24:12;;;;;;;;;1.00;1.00;;;;;28.98;40.54;100854.44;5055673;28;45716;-77
2022/08/24 11:26:50;;;;;;;;;2.50;2.50;;;;;29.13;40.54;100871.91;5055287;28;45612;-79
2022/08/24 11:32:53;;;;;;;;;3.25;2.25;;;;;29.26;40.62;100870.13;5055093;28;45556;-77
2022/08/24 11:35:22;;;;;;;;;2.00;2.00;;;;;29.30;40.14;100869.44;5055763;28;45675;-79
2022/08/24 11:37:50;;;;;;;;;3.25;1.50;;;;;29.34;40.36;100859.03;5055275;28;45647;-78
2022/08/24 11:40:19;;;;;;;;;1.00;1.00;;;;;29.38;40.30;100861.06;5055195;28;46501;-78
2022/08/24 11:43:05;;;;;;;;;3.25;3.25;;;;;29.45;40.01;100853.72;5055541;28;45762;-76
2022/08/24 11:49:03;;;;;;;;;1.75;1.00;;;;;29.57;40.20;100851.09;5054478;28;45554;-79
2022/08/24 11:52:10;;;;;;;;;3.50;2.00;;;;;29.61;40.04;100842.28;5054951;28;46350;-78
2022/08/24 11:54:51;;;;;;;;;2.00;1.75;;;;;29.66;39.49;100841.59;5055006;28;45597;-79
2022/08/24 11:57:24;;;;;;;;;1.50;1.00;;;;;29.70;39.71;100837.38;5055432;28;45626;-76
2022/08/24 11:59:59;;;;;;;;;0.25;0.25;;;;;29.68;38.85;100833.28;5054993;28;45847;-78
2022/08/24 12:03:03;;;;;;;;;2.75;2.00;;;;;29.74;38.70;100832.38;5055593;28;46439;-79
2022/08/24 12:05:49;;;;;;;;;1.00;1.00;;;;;29.76;38.73;100836.47;5055658;28;45506;-78
2022/08/24 12:08:25;;;;;;;;;2.00;2.00;;;;;29.79;38.72;100840.59;5055103;28;45685;-76
2022/08/24 12:11:12;;;;;;;;;3.00;3.00;;;;;29.81;38.38;100835.78;5055130;28;46287;-78
2022/08/24 12:14:10;;;;;;;;;3.00;2.00;;;;;29.84;38.45;100832.63;5054653;28;45633;-76
2022/08/24 12:16:50;;;;;;;;;0.00;0.00;;;;;29.89;38.56;100832.75;4992344;28;45965;-76
2022/08/24 12:19:25;;;;;;;;;1.00;1.00;;;;;29.95;37.91;100834.59;4992119;28;45946;-77
2022/08/24 12:21:54;;;;;;;;;1.00;1.00;;;;;30.01;37.76;100836.38;4992189;28;47918;-75
2022/08/24 12:24:31;;;;;;;;;1.00;1.00;;;;;30.07;37.63;100840.03;4992564;28;46214;-79
2022/08/24 12:27:07;;;;;;;;;1.00;1.00;;;;;30.10;37.82;100831.44;4992321;28;45714;-76
2022/08/24 12:33:00;;;;;;;;;1.00;1.00;;;;;30.20;37.05;100824.41;4991793;28;45718;-77
2022/08/24 12:35:31;;;;;;;;;2.00;2.00;;;;;30.21;36.69;100823.34;4992070;28;46141;-75
2022/08/24 12:38:13;;;;;;;;;1.75;1.75;;;;;30.24;37.49;100812.06;4991692;28;45910;-76
2022/08/24 12:40:39;;;;;;;;;3.00;2.00;;;;;30.29;37.17;100820.28;4992149;28;45711;-76
2022/08/24 12:43:13;;;;;;;;;1.25;1.00;;;;;30.34;37.06;100817.72;4991600;28;47394;-78
2022/08/24 12:49:24;;;;;;;;;0.50;0.50;;;;;30.48;36.76;100822.94;4991385;28;45924;-76
2022/08/24 12:52:27;;;;;;;;;1.25;1.25;;;;;30.55;36.00;100821.78;4991913;28;45551;-77
2022/08/24 12:55:10;;;;;;;;;1.50;0.50;;;;;30.63;36.30;100817.88;5054030;28;46555;-75
2022/08/24 12:57:47;;;;;;;;;0.75;0.00;;;;;30.70;36.34;100814.00;5053465;28;45613;-77
2022/08/24 13:00:19;;;;;;;;;0.75;0.75;;;;;30.75;36.03;100811.41;5054055;28;45641;-76
2022/08/24 13:02:56;;;;;;;;;2.00;2.00;;;;;30.75;35.55;100791.66;5054240;28;45863;-76
2022/08/24 13:05:22;;;;;;;;;0.75;0.00;;;;;30.83;35.66;100797.50;5035727;28;46535;-77
2022/08/24 13:07:50;;;;;;;;;1.75;0.25;;;;;30.83;35.83;100799.41;5053418;28;45796;-78
2022/08/24 13:10:24;;;;;;;;;1.00;1.00;;;;;30.91;35.23;100803.63;5053879;28;45663;-75
2022/08/24 13:13:07;;;;;;;;;0.00;0.00;;;;;30.90;35.23;100791.16;5053921;28;45594;-76
2022/08/24 13:15:33;;;;;;;;;1.00;1.00;;;;;30.95;35.15;100799.38;5053404;28;45889;-76
2022/08/24 13:17:58;;;;;;;;;0.00;0.00;;;;;30.98;35.19;100807.88;5052897;28;46934;-77
2022/08/24 13:20:33;;;;;;;;;1.00;0.50;;;;;31.01;35.43;100807.38;5053853;28;45614;-75
2022/08/24 13:23:04;;;;;;;;;0.50;0.50;;;;;31.05;35.49;100796.91;5053878;28;45593;-76
2022/08/24 13:25:50;;;;;;;;;0.75;0.75;;;;;31.07;35.08;100790.22;5053659;28;46979;-75
2022/08/24 13:28:19;;;;;;;;;0.25;0.25;;;;;31.09;35.43;100795.41;5053226;28;46394;-74
2022/08/24 13:31:04;;;;;;;;;1.00;0.25;;;;;31.10;35.44;100797.84;5053598;28;45885;-78